sensor_id;sensor_type;location;lat;lon;timestamp;pressure;altitude;pressure_sealevel;temperature;humidity
19594;BME280;9944;48.240;16.478;2023-05-01T00:03:26;100116.91;;;9.09;62.31
19594;BME280;9944;48.240;16.478;2023-05-01T00:07:29;100113.38;;;9.07;62.45
19594;BME280;9944;48.240;16.478;2023-05-01T00:11:34;100112.50;;;9.05;62.51
19594;BME280;9944;48.240;16.478;2023-05-01T00:15:40;100122.16;;;9.03;62.45
19594;BME280;9944;48.240;16.478;2023-05-01T00:19:45;100106.31;;;9.00;62.58
19594;BME280;9944;48.240;16.478;2023-05-01T00:23:48;100105.44;;;8.98;62.55
19594;BME280;9944;48.240;16.478;2023-05-01T00:27:51;100097.47;;;8.91;62.85
19594;BME280;9944;48.240;16.478;2023-05-01T00:31:54;100099.19;;;8.86;62.50
19594;BME280;9944;48.240;16.478;2023-05-01T00:35:59;100100.03;;;8.81;62.38
19594;BME280;9944;48.240;16.478;2023-05-01T00:40:03;100099.13;;;8.77;62.59
19594;BME280;9944;48.240;16.478;2023-05-01T00:44:06;100100.00;;;8.74;62.28
19594;BME280;9944;48.240;16.478;2023-05-01T00:48:09;100096.44;;;8.69;62.49
19594;BME280;9944;48.240;16.478;2023-05-01T00:52:14;100091.97;;;8.64;62.52
19594;BME280;9944;48.240;16.478;2023-05-01T00:56:17;100083.16;;;8.59;62.50
19594;BME280;9944;48.240;16.478;2023-05-01T01:00:22;100090.16;;;8.57;62.76
19594;BME280;9944;48.240;16.478;2023-05-01T01:04:25;100089.22;;;8.51;62.71
19594;BME280;9944;48.240;16.478;2023-05-01T01:08:38;100090.91;;;8.43;62.93
19594;BME280;9944;48.240;16.478;2023-05-01T01:12:47;100093.47;;;8.35;62.80
19594;BME280;9944;48.240;16.478;2023-05-01T01:16:57;100084.66;;;8.32;62.99
19594;BME280;9944;48.240;16.478;2023-05-01T01:21:06;100085.47;;;8.28;63.10
19594;BME280;9944;48.240;16.478;2023-05-01T01:29:54;100082.72;;;8.18;63.00
19594;BME280;9944;48.240;16.478;2023-05-01T01:34:07;100089.69;;;8.10;63.01
19594;BME280;9944;48.240;16.478;2023-05-01T01:38:15;100093.13;;;8.06;63.18
19594;BME280;9944;48.240;16.478;2023-05-01T01:42:24;100087.81;;;8.03;63.22
19594;BME280;9944;48.240;16.478;2023-05-01T01:46:32;100088.69;;;8.01;63.32
19594;BME280;9944;48.240;16.478;2023-05-01T01:50:41;100079.00;;;7.95;63.36
19594;BME280;9944;48.240;16.478;2023-05-01T01:54:49;100084.19;;;7.90;62.95
19594;BME280;9944;48.240;16.478;2023-05-01T01:58:54;100081.53;;;7.89;62.83
19594;BME280;9944;48.240;16.478;2023-05-01T02:02:59;100085.84;;;7.84;62.88
19594;BME280;9944;48.240;16.478;2023-05-01T02:07:05;100077.06;;;7.80;62.98
19594;BME280;9944;48.240;16.478;2023-05-01T02:11:10;100074.34;;;7.75;63.04
19594;BME280;9944;48.240;16.478;2023-05-01T02:15:17;100069.97;;;7.73;63.12
19594;BME280;9944;48.240;16.478;2023-05-01T02:19:21;100059.34;;;7.65;63.32
19594;BME280;9944;48.240;16.478;2023-05-01T02:23:26;100061.06;;;7.63;63.58
19594;BME280;9944;48.240;16.478;2023-05-01T02:27:32;100065.41;;;7.59;63.59
19594;BME280;9944;48.240;16.478;2023-05-01T02:31:36;100057.47;;;7.56;63.78
19594;BME280;9944;48.240;16.478;2023-05-01T02:35:39;100043.44;;;7.53;63.61
19594;BME280;9944;48.240;16.478;2023-05-01T02:39:45;100053.03;;;7.51;63.78
19594;BME280;9944;48.240;16.478;2023-05-01T02:43:52;100043.41;;;7.50;63.60
19594;BME280;9944;48.240;16.478;2023-05-01T02:48:00;100053.88;;;7.47;63.57
19594;BME280;9944;48.240;16.478;2023-05-01T02:52:06;100045.97;;;7.45;63.34
19594;BME280;9944;48.240;16.478;2023-05-01T02:56:11;100047.75;;;7.46;63.45
19594;BME280;9944;48.240;16.478;2023-05-01T03:00:14;100044.22;;;7.46;63.35
19594;BME280;9944;48.240;16.478;2023-05-01T03:04:18;100049.44;;;7.44;63.57
19594;BME280;9944;48.240;16.478;2023-05-01T03:08:21;100039.75;;;7.38;63.39
19594;BME280;9944;48.240;16.478;2023-05-01T03:12:25;100034.44;;;7.32;63.41
19594;BME280;9944;48.240;16.478;2023-05-01T03:16:29;100033.47;;;7.29;63.30
19594;BME280;9944;48.240;16.478;2023-05-01T03:20:32;100036.13;;;7.27;63.27
19594;BME280;9944;48.240;16.478;2023-05-01T03:24:36;100034.34;;;7.26;63.37
19594;BME280;9944;48.240;16.478;2023-05-01T03:28:41;100040.44;;;7.22;63.35
19594;BME280;9944;48.240;16.478;2023-05-01T03:32:44;100041.25;;;7.19;63.82
19594;BME280;9944;48.240;16.478;2023-05-01T03:36:54;100039.47;;;7.17;63.85
19594;BME280;9944;48.240;16.478;2023-05-01T03:41:00;100030.66;;;7.15;63.94
19594;BME280;9944;48.240;16.478;2023-05-01T03:45:34;100038.50;;;7.10;63.82
19594;BME280;9944;48.240;16.478;2023-05-01T03:49:37;100030.50;;;7.02;64.04
19594;BME280;9944;48.240;16.478;2023-05-01T03:53:40;100033.94;;;6.98;64.21
19594;BME280;9944;48.240;16.478;2023-05-01T03:57:44;100033.84;;;6.92;64.01
19594;BME280;9944;48.240;16.478;2023-05-01T04:01:49;100036.50;;;6.94;64.12
19594;BME280;9944;48.240;16.478;2023-05-01T04:05:52;100037.34;;;6.91;64.22
19594;BME280;9944;48.240;16.478;2023-05-01T04:09:55;100029.44;;;6.90;64.50
19594;BME280;9944;48.240;16.478;2023-05-01T04:13:59;100033.81;;;6.89;64.44
19594;BME280;9944;48.240;16.478;2023-05-01T04:18:04;100034.66;;;6.86;64.69
19594;BME280;9944;48.240;16.478;2023-05-01T04:22:08;100045.13;;;6.85;64.91
19594;BME280;9944;48.240;16.478;2023-05-01T04:26:12;100045.09;;;6.83;64.89
19594;BME280;9944;48.240;16.478;2023-05-01T04:30:15;100036.38;;;6.84;64.85
19594;BME280;9944;48.240;16.478;2023-05-01T04:34:20;100030.31;;;6.90;64.74
19594;BME280;9944;48.240;16.478;2023-05-01T04:38:23;100040.00;;;6.93;64.73
19594;BME280;9944;48.240;16.478;2023-05-01T04:42:29;100041.78;;;6.95;64.73
19594;BME280;9944;48.240;16.478;2023-05-01T04:46:34;100045.31;;;6.99;65.05
19594;BME280;9944;48.240;16.478;2023-05-01T04:50:39;100045.38;;;7.02;65.00
19594;BME280;9944;48.240;16.478;2023-05-01T04:54:42;100034.94;;;7.05;65.12
19594;BME280;9944;48.240;16.478;2023-05-01T04:58:47;100040.22;;;7.08;64.92
19594;BME280;9944;48.240;16.478;2023-05-01T05:02:56;100041.09;;;7.09;64.94
19594;BME280;9944;48.240;16.478;2023-05-01T05:07:03;100039.44;;;7.14;65.21
19594;BME280;9944;48.240;16.478;2023-05-01T05:11:27;100043.03;;;7.22;65.27
19594;BME280;9944;48.240;16.478;2023-05-01T05:15:31;100044.00;;;7.29;65.33
19594;BME280;9944;48.240;16.478;2023-05-01T05:19:36;100046.78;;;7.39;65.49
19594;BME280;9944;48.240;16.478;2023-05-01T05:23:41;100053.03;;;7.51;65.27
19594;BME280;9944;48.240;16.478;2023-05-01T05:27:44;100048.81;;;7.62;64.64
19594;BME280;9944;48.240;16.478;2023-05-01T05:31:48;100047.22;;;7.76;64.01
19594;BME280;9944;48.240;16.478;2023-05-01T05:35:51;100046.53;;;7.94;63.42
19594;BME280;9944;48.240;16.478;2023-05-01T05:40:00;100061.66;;;8.15;63.25
19594;BME280;9944;48.240;16.478;2023-05-01T05:44:09;100055.78;;;8.36;63.04
19594;BME280;9944;48.240;16.478;2023-05-01T05:48:13;100057.72;;;8.56;62.20
19594;BME280;9944;48.240;16.478;2023-05-01T05:52:16;100043.00;;;8.84;62.49
19594;BME280;9944;48.240;16.478;2023-05-01T05:56:21;100054.63;;;9.14;62.08
19594;BME280;9944;48.240;16.478;2023-05-01T06:00:25;100053.88;;;9.40;61.36
19594;BME280;9944;48.240;16.478;2023-05-01T06:04:30;100050.47;;;9.59;60.38
19594;BME280;9944;48.240;16.478;2023-05-01T06:08:33;100054.97;;;9.79;60.19
19594;BME280;9944;48.240;16.478;2023-05-01T06:12:42;100046.25;;;9.98;59.59
19594;BME280;9944;48.240;16.478;2023-05-01T06:16:57;100046.28;;;10.18;59.23
19594;BME280;9944;48.240;16.478;2023-05-01T06:21:01;100037.50;;;10.29;58.28
19594;BME280;9944;48.240;16.478;2023-05-01T06:25:06;100041.03;;;10.37;58.12
19594;BME280;9944;48.240;16.478;2023-05-01T06:29:11;100042.81;;;10.50;57.84
19594;BME280;9944;48.240;16.478;2023-05-01T06:33:15;100029.63;;;10.64;57.36
19594;BME280;9944;48.240;16.478;2023-05-01T06:37:20;100033.09;;;10.86;57.53
19594;BME280;9944;48.240;16.478;2023-05-01T06:41:24;100036.63;;;11.02;57.22
19594;BME280;9944;48.240;16.478;2023-05-01T06:45:29;100041.84;;;11.21;57.27
19594;BME280;9944;48.240;16.478;2023-05-01T06:49:32;100047.13;;;11.36;57.03
19594;BME280;9944;48.240;16.478;2023-05-01T06:53:35;100041.81;;;11.45;56.21
19594;BME280;9944;48.240;16.478;2023-05-01T06:57:39;100047.09;;;11.51;56.17
19594;BME280;9944;48.240;16.478;2023-05-01T07:01:43;100036.50;;;11.58;56.34
19594;BME280;9944;48.240;16.478;2023-05-01T07:05:47;100046.13;;;11.72;56.21
19594;BME280;9944;48.240;16.478;2023-05-01T07:09:50;100043.47;;;11.77;55.95
19594;BME280;9944;48.240;16.478;2023-05-01T07:13:53;100042.50;;;11.92;55.86
19594;BME280;9944;48.240;16.478;2023-05-01T07:17:57;100045.06;;;12.06;55.34
19594;BME280;9944;48.240;16.478;2023-05-01T07:22:04;100031.72;;;12.23;55.31
19594;BME280;9944;48.240;16.478;2023-05-01T07:26:07;100034.25;;;12.43;55.20
19594;BME280;9944;48.240;16.478;2023-05-01T07:30:10;100028.88;;;12.52;54.73
19594;BME280;9944;48.240;16.478;2023-05-01T07:34:15;100032.34;;;12.57;55.28
19594;BME280;9944;48.240;16.478;2023-05-01T07:38:20;100025.31;;;12.59;54.80
19594;BME280;9944;48.240;16.478;2023-05-01T07:42:23;100030.56;;;12.67;54.65
19594;BME280;9944;48.240;16.478;2023-05-01T07:46:28;100023.41;;;12.74;54.32
19594;BME280;9944;48.240;16.478;2023-05-01T07:50:33;100018.09;;;12.77;54.08
19594;BME280;9944;48.240;16.478;2023-05-01T07:54:36;100018.03;;;12.83;54.37
19594;BME280;9944;48.240;16.478;2023-05-01T07:58:40;100010.03;;;12.87;53.92
19594;BME280;9944;48.240;16.478;2023-05-01T08:02:43;100016.16;;;12.96;53.69
19594;BME280;9944;48.240;16.478;2023-05-01T08:06:48;100009.78;;;13.14;54.35
19594;BME280;9944;48.240;16.478;2023-05-01T08:10:52;100014.00;;;13.30;54.20
19594;BME280;9944;48.240;16.478;2023-05-01T08:14:55;100013.84;;;13.46;54.24
19594;BME280;9944;48.240;16.478;2023-05-01T08:18:58;100010.16;;;13.59;54.19
19594;BME280;9944;48.240;16.478;2023-05-01T08:23:03;100011.69;;;13.77;54.42
19594;BME280;9944;48.240;16.478;2023-05-01T08:27:06;100006.22;;;13.91;54.87
19594;BME280;9944;48.240;16.478;2023-05-01T08:31:09;100001.56;;;14.07;54.33
19594;BME280;9944;48.240;16.478;2023-05-01T08:35:13;99998.78;;;14.14;54.43
19594;BME280;9944;48.240;16.478;2023-05-01T08:39:17;99992.50;;;14.22;54.16
19594;BME280;9944;48.240;16.478;2023-05-01T08:43:21;99985.19;;;14.34;54.74
19594;BME280;9944;48.240;16.478;2023-05-01T08:47:26;99990.31;;;14.47;54.24
19594;BME280;9944;48.240;16.478;2023-05-01T08:51:31;99977.72;;;14.58;54.64
19594;BME280;9944;48.240;16.478;2023-05-01T08:55:38;99975.63;;;14.77;54.29
19594;BME280;9944;48.240;16.478;2023-05-01T08:59:43;99981.53;;;14.94;53.88
19594;BME280;9944;48.240;16.478;2023-05-01T09:03:48;99979.28;;;15.18;53.71
19594;BME280;9944;48.240;16.478;2023-05-01T09:07:54;99972.03;;;15.26;53.51
19594;BME280;9944;48.240;16.478;2023-05-01T09:12:02;99965.72;;;15.32;53.48
19594;BME280;9944;48.240;16.478;2023-05-01T09:16:10;99960.78;;;15.56;54.14
19594;BME280;9944;48.240;16.478;2023-05-01T09:20:14;99963.72;;;15.84;53.51
19594;BME280;9944;48.240;16.478;2023-05-01T09:24:18;99943.63;;;16.10;51.84
19594;BME280;9944;48.240;16.478;2023-05-01T09:28:42;99953.19;;;16.18;48.95
19594;BME280;9944;48.240;16.478;2023-05-01T09:32:45;99941.41;;;16.27;50.16
19594;BME280;9944;48.240;16.478;2023-05-01T09:37:05;99930.44;;;16.39;49.75
19594;BME280;9944;48.240;16.478;2023-05-01T09:41:09;99928.41;;;16.51;49.45
19594;BME280;9944;48.240;16.478;2023-05-01T09:45:13;99922.63;;;16.66;49.81
19594;BME280;9944;48.240;16.478;2023-05-01T09:49:17;99926.59;;;16.86;49.86
19594;BME280;9944;48.240;16.478;2023-05-01T09:53:32;99921.69;;;17.03;49.20
19594;BME280;9944;48.240;16.478;2023-05-01T09:57:38;99919.31;;;17.24;49.51
19594;BME280;9944;48.240;16.478;2023-05-01T10:01:46;99918.00;;;17.37;49.18
19594;BME280;9944;48.240;16.478;2023-05-01T10:05:51;99913.31;;;17.45;48.98
19594;BME280;9944;48.240;16.478;2023-05-01T10:09:57;99911.09;;;17.60;48.74
19594;BME280;9944;48.240;16.478;2023-05-01T10:14:06;99913.72;;;17.61;47.97
19594;BME280;9944;48.240;16.478;2023-05-01T10:18:13;99917.34;;;17.60;48.30
19594;BME280;9944;48.240;16.478;2023-05-01T10:22:16;99900.31;;;17.63;47.97
19594;BME280;9944;48.240;16.478;2023-05-01T10:26:19;99902.97;;;17.64;48.51
19594;BME280;9944;48.240;16.478;2023-05-01T10:30:24;99891.09;;;17.73;47.97
19594;BME280;9944;48.240;16.478;2023-05-01T10:34:30;99889.13;;;17.81;47.82
19594;BME280;9944;48.240;16.478;2023-05-01T10:38:37;99886.66;;;18.02;48.16
19594;BME280;9944;48.240;16.478;2023-05-01T10:43:11;99883.53;;;18.16;48.29
19594;BME280;9944;48.240;16.478;2023-05-01T10:51:59;99876.47;;;18.40;47.41
19594;BME280;9944;48.240;16.478;2023-05-01T10:56:05;99870.91;;;18.46;47.60
19594;BME280;9944;48.240;16.478;2023-05-01T11:00:26;99869.03;;;18.48;47.50
19594;BME280;9944;48.240;16.478;2023-05-01T11:04:46;99861.72;;;18.53;47.57
19594;BME280;9944;48.240;16.478;2023-05-01T11:08:55;99851.75;;;18.58;47.74
19594;BME280;9944;48.240;16.478;2023-05-01T11:12:59;99848.91;;;18.64;47.30
19594;BME280;9944;48.240;16.478;2023-05-01T11:17:02;99843.41;;;18.67;46.68
19594;BME280;9944;48.240;16.478;2023-05-01T11:21:05;99834.47;;;18.68;47.45
19594;BME280;9944;48.240;16.478;2023-05-01T11:25:18;99833.91;;;18.84;47.52
19594;BME280;9944;48.240;16.478;2023-05-01T11:29:22;99839.06;;;18.90;47.19
19594;BME280;9944;48.240;16.478;2023-05-01T11:33:26;99831.06;;;18.88;47.05
19594;BME280;9944;48.240;16.478;2023-05-01T11:37:38;99816.94;;;18.85;46.70
19594;BME280;9944;48.240;16.478;2023-05-01T11:41:43;99813.22;;;18.89;47.22
19594;BME280;9944;48.240;16.478;2023-05-01T11:45:51;99817.75;;;18.87;46.72
19594;BME280;9944;48.240;16.478;2023-05-01T11:49:56;99801.97;;;18.79;46.44
19594;BME280;9944;48.240;16.478;2023-05-01T11:53:59;99798.59;;;18.74;45.95
19594;BME280;9944;48.240;16.478;2023-05-01T11:58:04;99788.09;;;18.69;46.49
19594;BME280;9944;48.240;16.478;2023-05-01T12:02:17;99784.59;;;18.67;46.46
19594;BME280;9944;48.240;16.478;2023-05-01T12:06:20;99786.59;;;18.62;46.92
19594;BME280;9944;48.240;16.478;2023-05-01T12:10:23;99784.66;;;18.66;46.56
19594;BME280;9944;48.240;16.478;2023-05-01T12:14:28;99773.72;;;18.72;46.73
19594;BME280;9944;48.240;16.478;2023-05-01T12:18:31;99779.03;;;18.74;46.82
19594;BME280;9944;48.240;16.478;2023-05-01T12:22:34;99765.28;;;18.83;46.05
19594;BME280;9944;48.240;16.478;2023-05-01T12:26:58;99760.63;;;18.88;45.94
19594;BME280;9944;48.240;16.478;2023-05-01T12:31:04;99742.50;;;18.96;46.62
19594;BME280;9944;48.240;16.478;2023-05-01T12:35:14;99753.06;;;18.99;46.08
19594;BME280;9944;48.240;16.478;2023-05-01T12:39:17;99741.56;;;18.97;45.90
19594;BME280;9944;48.240;16.478;2023-05-01T12:43:28;99739.69;;;18.99;45.49
19594;BME280;9944;48.240;16.478;2023-05-01T12:47:36;99735.84;;;19.06;44.80
19594;BME280;9944;48.240;16.478;2023-05-01T12:51:39;99731.56;;;19.02;44.94
19594;BME280;9944;48.240;16.478;2023-05-01T12:55:49;99726.69;;;18.90;45.25
19594;BME280;9944;48.240;16.478;2023-05-01T12:59:58;99724.94;;;18.89;45.33
19594;BME280;9944;48.240;16.478;2023-05-01T13:04:03;99718.47;;;18.95;46.07
19594;BME280;9944;48.240;16.478;2023-05-01T13:08:06;99705.41;;;19.09;45.06
19594;BME280;9944;48.240;16.478;2023-05-01T13:12:10;99692.69;;;19.14;45.27
19594;BME280;9944;48.240;16.478;2023-05-01T13:16:15;99702.16;;;19.23;45.48
19594;BME280;9944;48.240;16.478;2023-05-01T13:20:26;99685.47;;;19.38;46.02
19594;BME280;9944;48.240;16.478;2023-05-01T13:24:37;99691.28;;;19.50;45.34
19594;BME280;9944;48.240;16.478;2023-05-01T13:28:43;99681.13;;;19.58;44.00
19594;BME280;9944;48.240;16.478;2023-05-01T13:32:49;99675.22;;;19.50;43.39
19594;BME280;9944;48.240;16.478;2023-05-01T13:36:54;99671.56;;;19.30;44.26
19594;BME280;9944;48.240;16.478;2023-05-01T13:40:57;99659.34;;;19.23;44.25
19594;BME280;9944;48.240;16.478;2023-05-01T13:45:00;99656.13;;;19.15;43.61
19594;BME280;9944;48.240;16.478;2023-05-01T13:49:07;99654.66;;;19.08;43.72
19594;BME280;9944;48.240;16.478;2023-05-01T13:53:12;99646.69;;;19.06;43.62
19594;BME280;9944;48.240;16.478;2023-05-01T13:57:15;99638.19;;;19.17;44.21
19594;BME280;9944;48.240;16.478;2023-05-01T14:01:20;99648.78;;;19.20;43.56
19594;BME280;9944;48.240;16.478;2023-05-01T14:05:26;99646.47;;;19.11;43.66
19594;BME280;9944;48.240;16.478;2023-05-01T14:09:34;99643.31;;;19.01;43.67
19594;BME280;9944;48.240;16.478;2023-05-01T14:13:39;99639.97;;;18.96;44.21
19594;BME280;9944;48.240;16.478;2023-05-01T14:17:42;99636.47;;;18.94;44.28
19594;BME280;9944;48.240;16.478;2023-05-01T14:21:45;99630.94;;;18.98;43.79
19594;BME280;9944;48.240;16.478;2023-05-01T14:25:50;99622.84;;;19.00;43.92
19594;BME280;9944;48.240;16.478;2023-05-01T14:29:53;99622.44;;;19.09;44.09
19594;BME280;9944;48.240;16.478;2023-05-01T14:33:57;99606.09;;;19.17;44.40
19594;BME280;9944;48.240;16.478;2023-05-01T14:38:07;99607.81;;;19.18;44.30
19594;BME280;9944;48.240;16.478;2023-05-01T14:42:12;99606.09;;;19.17;43.90
19594;BME280;9944;48.240;16.478;2023-05-01T14:46:25;99601.88;;;19.11;43.08
19594;BME280;9944;48.240;16.478;2023-05-01T14:50:29;99605.59;;;19.07;44.03
19594;BME280;9944;48.240;16.478;2023-05-01T14:54:42;99596.59;;;19.10;43.96
19594;BME280;9944;48.240;16.478;2023-05-01T14:58:48;99592.94;;;19.11;43.39
19594;BME280;9944;48.240;16.478;2023-05-01T15:02:52;99585.94;;;19.08;43.55
19594;BME280;9944;48.240;16.478;2023-05-01T15:06:56;99594.16;;;19.03;43.90
19594;BME280;9944;48.240;16.478;2023-05-01T15:10:59;99589.00;;;18.99;43.78
19594;BME280;9944;48.240;16.478;2023-05-01T15:15:05;99595.63;;;18.90;43.65
19594;BME280;9944;48.240;16.478;2023-05-01T15:19:08;99587.72;;;18.87;44.14
19594;BME280;9944;48.240;16.478;2023-05-01T15:23:11;99594.66;;;18.91;44.37
19594;BME280;9944;48.240;16.478;2023-05-01T15:27:15;99592.06;;;18.90;44.40
19594;BME280;9944;48.240;16.478;2023-05-01T15:31:20;99579.75;;;18.85;44.37
19594;BME280;9944;48.240;16.478;2023-05-01T15:35:23;99572.84;;;18.80;44.23
19594;BME280;9944;48.240;16.478;2023-05-01T15:39:26;99592.69;;;18.74;44.21
19594;BME280;9944;48.240;16.478;2023-05-01T15:43:30;99588.47;;;18.68;44.44
19594;BME280;9944;48.240;16.478;2023-05-01T15:47:34;99578.69;;;18.67;44.56
19594;BME280;9944;48.240;16.478;2023-05-01T15:51:37;99576.16;;;18.64;44.93
19594;BME280;9944;48.240;16.478;2023-05-01T15:55:40;99583.41;;;18.61;44.86
19594;BME280;9944;48.240;16.478;2023-05-01T15:59:43;99570.09;;;18.59;44.78
19594;BME280;9944;48.240;16.478;2023-05-01T16:03:48;99580.09;;;18.54;44.89
19594;BME280;9944;48.240;16.478;2023-05-01T16:07:53;99583.69;;;18.53;44.93
19594;BME280;9944;48.240;16.478;2023-05-01T16:11:56;99579.28;;;18.52;44.89
19594;BME280;9944;48.240;16.478;2023-05-01T16:16:00;99582.19;;;18.46;44.70
19594;BME280;9944;48.240;16.478;2023-05-01T16:20:08;99588.47;;;18.45;44.86
19594;BME280;9944;48.240;16.478;2023-05-01T16:24:12;99569.91;;;18.42;44.96
19594;BME280;9944;48.240;16.478;2023-05-01T16:28:16;99560.44;;;18.33;44.66
19594;BME280;9944;48.240;16.478;2023-05-01T16:32:19;99566.75;;;18.30;45.19
19594;BME280;9944;48.240;16.478;2023-05-01T16:36:26;99572.38;;;18.24;45.25
19594;BME280;9944;48.240;16.478;2023-05-01T16:40:29;99562.75;;;18.19;45.21
19594;BME280;9944;48.240;16.478;2023-05-01T16:44:34;99567.34;;;18.15;45.33
19594;BME280;9944;48.240;16.478;2023-05-01T16:48:38;99567.63;;;18.09;45.39
19594;BME280;9944;48.240;16.478;2023-05-01T16:52:48;99567.72;;;18.06;45.73
19594;BME280;9944;48.240;16.478;2023-05-01T16:56:51;99567.84;;;18.03;45.74
19594;BME280;9944;48.240;16.478;2023-05-01T17:00:54;99567.03;;;18.01;45.96
19594;BME280;9944;48.240;16.478;2023-05-01T17:04:58;99574.41;;;17.94;46.20
19594;BME280;9944;48.240;16.478;2023-05-01T17:09:02;99572.88;;;17.87;46.17
19594;BME280;9944;48.240;16.478;2023-05-01T17:13:06;99571.22;;;17.84;46.44
19594;BME280;9944;48.240;16.478;2023-05-01T17:17:09;99577.69;;;17.77;46.39
19594;BME280;9944;48.240;16.478;2023-05-01T17:21:12;99567.22;;;17.71;46.50
19594;BME280;9944;48.240;16.478;2023-05-01T17:25:16;99563.00;;;17.65;46.84
19594;BME280;9944;48.240;16.478;2023-05-01T17:29:19;99571.25;;;17.57;46.84
19594;BME280;9944;48.240;16.478;2023-05-01T17:33:22;99572.34;;;17.52;47.17
19594;BME280;9944;48.240;16.478;2023-05-01T17:37:25;99572.56;;;17.46;47.36
19594;BME280;9944;48.240;16.478;2023-05-01T17:41:30;99575.66;;;17.33;47.34
19594;BME280;9944;48.240;16.478;2023-05-01T17:45:33;99578.72;;;17.23;47.39
19594;BME280;9944;48.240;16.478;2023-05-01T17:49:36;99572.69;;;17.17;47.46
19594;BME280;9944;48.240;16.478;2023-05-01T17:53:39;99582.47;;;17.17;47.86
19594;BME280;9944;48.240;16.478;2023-05-01T17:57:44;99578.44;;;17.05;47.87
19594;BME280;9944;48.240;16.478;2023-05-01T18:01:48;99569.72;;;17.00;48.17
19594;BME280;9944;48.240;16.478;2023-05-01T18:05:51;99575.16;;;16.97;48.40
19594;BME280;9944;48.240;16.478;2023-05-01T18:09:54;99574.44;;;16.92;48.53
19594;BME280;9944;48.240;16.478;2023-05-01T18:13:59;99574.59;;;16.87;48.63
19594;BME280;9944;48.240;16.478;2023-05-01T18:18:03;99569.44;;;16.81;48.79
19594;BME280;9944;48.240;16.478;2023-05-01T18:22:06;99574.00;;;16.77;48.81
19594;BME280;9944;48.240;16.478;2023-05-01T18:26:09;99574.19;;;16.71;49.20
19594;BME280;9944;48.240;16.478;2023-05-01T18:30:13;99580.44;;;16.70;49.37
19594;BME280;9944;48.240;16.478;2023-05-01T18:34:17;99578.69;;;16.69;49.36
19594;BME280;9944;48.240;16.478;2023-05-01T18:38:20;99579.69;;;16.67;49.73
19594;BME280;9944;48.240;16.478;2023-05-01T18:42:26;99584.25;;;16.63;49.70
19594;BME280;9944;48.240;16.478;2023-05-01T18:46:31;99589.69;;;16.58;49.86
19594;BME280;9944;48.240;16.478;2023-05-01T18:50:34;99588.06;;;16.54;49.80
19594;BME280;9944;48.240;16.478;2023-05-01T18:54:37;99584.75;;;16.46;49.67
19594;BME280;9944;48.240;16.478;2023-05-01T18:58:40;99591.03;;;16.43;49.67
19594;BME280;9944;48.240;16.478;2023-05-01T19:02:45;99599.97;;;16.42;49.91
19594;BME280;9944;48.240;16.478;2023-05-01T19:06:52;99599.25;;;16.37;49.79
19594;BME280;9944;48.240;16.478;2023-05-01T19:10:56;99602.81;;;16.36;50.05
19594;BME280;9944;48.240;16.478;2023-05-01T19:14:59;99598.56;;;16.31;50.08
19594;BME280;9944;48.240;16.478;2023-05-01T19:19:03;99593.28;;;16.29;50.26
19594;BME280;9944;48.240;16.478;2023-05-01T19:23:06;99601.34;;;16.26;50.13
19594;BME280;9944;48.240;16.478;2023-05-01T19:27:09;99600.53;;;16.24;50.22
19594;BME280;9944;48.240;16.478;2023-05-01T19:31:12;99605.13;;;16.19;50.26
19594;BME280;9944;48.240;16.478;2023-05-01T19:35:17;99606.06;;;16.18;50.21
19594;BME280;9944;48.240;16.478;2023-05-01T19:39:20;99616.78;;;16.15;50.49
19594;BME280;9944;48.240;16.478;2023-05-01T19:43:23;99613.34;;;16.11;50.54
19594;BME280;9944;48.240;16.478;2023-05-01T19:47:26;99616.97;;;16.09;50.66
19594;BME280;9944;48.240;16.478;2023-05-01T19:51:30;99620.56;;;16.08;50.62
19594;BME280;9944;48.240;16.478;2023-05-01T19:55:33;99618.88;;;16.03;50.60
19594;BME280;9944;48.240;16.478;2023-05-01T19:59:36;99618.09;;;16.00;50.86
19594;BME280;9944;48.240;16.478;2023-05-01T20:03:41;99624.41;;;15.97;50.96
19594;BME280;9944;48.240;16.478;2023-05-01T20:07:46;99621.81;;;15.94;50.92
19594;BME280;9944;48.240;16.478;2023-05-01T20:11:49;99622.91;;;15.87;51.01
19594;BME280;9944;48.240;16.478;2023-05-01T20:15:52;99622.19;;;15.80;50.93
19594;BME280;9944;48.240;16.478;2023-05-01T20:19:55;99627.63;;;15.76;51.19
19594;BME280;9944;48.240;16.478;2023-05-01T20:24:01;99629.53;;;15.70;51.41
19594;BME280;9944;48.240;16.478;2023-05-01T20:28:04;99625.19;;;15.68;51.43
19594;BME280;9944;48.240;16.478;2023-05-01T20:32:07;99632.31;;;15.67;51.59
19594;BME280;9944;48.240;16.478;2023-05-01T20:36:10;99635.03;;;15.64;51.64
19594;BME280;9944;48.240;16.478;2023-05-01T20:40:17;99642.22;;;15.62;51.63
19594;BME280;9944;48.240;16.478;2023-05-01T20:44:20;99646.63;;;15.62;51.71
19594;BME280;9944;48.240;16.478;2023-05-01T20:48:23;99648.50;;;15.58;51.88
19594;BME280;9944;48.240;16.478;2023-05-01T20:52:27;99662.66;;;15.60;52.30
19594;BME280;9944;48.240;16.478;2023-05-01T20:56:31;99653.81;;;15.58;52.51
19594;BME280;9944;48.240;16.478;2023-05-01T21:00:35;99655.66;;;15.56;52.75
19594;BME280;9944;48.240;16.478;2023-05-01T21:04:38;99664.66;;;15.52;52.82
19594;BME280;9944;48.240;16.478;2023-05-01T21:08:42;99664.78;;;15.46;52.83
19594;BME280;9944;48.240;16.478;2023-05-01T21:12:46;99662.22;;;15.43;53.03
19594;BME280;9944;48.240;16.478;2023-05-01T21:16:49;99661.56;;;15.35;53.00
19594;BME280;9944;48.240;16.478;2023-05-01T21:20:53;99655.50;;;15.28;53.17
19594;BME280;9944;48.240;16.478;2023-05-01T21:24:58;99661.88;;;15.22;53.33
19594;BME280;9944;48.240;16.478;2023-05-01T21:29:02;99663.75;;;15.17;53.52
19594;BME280;9944;48.240;16.478;2023-05-01T21:33:07;99658.66;;;15.08;53.70
19594;BME280;9944;48.240;16.478;2023-05-01T21:37:13;99670.38;;;14.99;53.93
19594;BME280;9944;48.240;16.478;2023-05-01T21:41:19;99667.84;;;14.94;54.19
19594;BME280;9944;48.240;16.478;2023-05-01T21:45:24;99667.97;;;14.90;54.48
19594;BME280;9944;48.240;16.478;2023-05-01T21:49:28;99675.13;;;14.86;54.65